createdAt,value
2018-08-18T00:00:37.169Z,1013.77
2018-08-18T00:01:37.196Z,1013.77
2018-08-18T00:02:37.223Z,1013.83
2018-08-18T00:03:37.247Z,1013.78
2018-08-18T00:04:37.260Z,1013.75
2018-08-18T00:05:37.285Z,1013.83
2018-08-18T00:06:37.314Z,1013.82
2018-08-18T00:07:37.337Z,1013.83
2018-08-18T00:08:37.363Z,1013.79
2018-08-18T00:09:37.378Z,1013.79
2018-08-18T00:10:37.403Z,1013.84
2018-08-18T00:11:37.429Z,1013.81
2018-08-18T00:12:37.456Z,1013.84
2018-08-18T00:13:37.476Z,1013.86
2018-08-18T00:14:37.523Z,1013.82
2018-08-18T00:15:37.520Z,1013.82
2018-08-18T00:16:37.559Z,1013.85
2018-08-18T00:17:37.572Z,1013.88
2018-08-18T00:18:37.586Z,1013.91
2018-08-18T00:19:37.613Z,1013.91
2018-08-18T00:20:37.637Z,1013.94
2018-08-18T00:21:37.664Z,1013.91
2018-08-18T00:22:37.679Z,1013.94
2018-08-18T00:23:37.717Z,1013.95
2018-08-18T00:24:37.728Z,1014.00
2018-08-18T00:25:37.759Z,1013.98
2018-08-18T00:26:37.794Z,1014.00
2018-08-18T00:27:37.796Z,1014.03
2018-08-18T00:28:37.823Z,1014.05
2018-08-18T00:29:37.847Z,1014.06
2018-08-18T00:30:37.873Z,1014.09
2018-08-18T00:31:37.887Z,1014.10
2018-08-18T00:32:37.913Z,1014.16
2018-08-18T00:33:37.951Z,1014.14
2018-08-18T00:34:37.964Z,1014.18
2018-08-18T00:35:37.989Z,1014.17
2018-08-18T00:36:38.019Z,1014.21
2018-08-18T00:37:38.029Z,1014.19
2018-08-18T00:38:38.056Z,1014.23
2018-08-18T00:39:38.081Z,1014.25
2018-08-18T00:40:38.095Z,1014.26
2018-08-18T00:41:38.119Z,1014.28
2018-08-18T00:42:38.146Z,1014.30
2018-08-18T00:43:38.172Z,1014.28
2018-08-18T00:44:38.198Z,1014.24
2018-08-18T00:45:38.212Z,1014.22
2018-08-18T00:46:38.237Z,1014.25
2018-08-18T00:47:38.266Z,1014.23
2018-08-18T00:48:38.290Z,1014.25
2018-08-18T00:49:38.316Z,1014.23
2018-08-18T00:50:38.328Z,1014.23
2018-08-18T00:51:38.354Z,1014.22
2018-08-18T00:52:38.393Z,1014.22
2018-08-18T00:53:38.406Z,1014.22
2018-08-18T00:54:38.420Z,1014.23
2018-08-18T00:55:38.446Z,1014.23
2018-08-18T00:56:38.472Z,1014.25
2018-08-18T00:57:38.498Z,1014.24
2018-08-18T00:58:38.511Z,1014.23
2018-08-18T00:59:38.536Z,1014.27
2018-08-18T01:00:38.563Z,1014.22
2018-08-18T01:01:38.589Z,1014.24
2018-08-18T01:02:38.618Z,1014.25
2018-08-18T01:03:38.629Z,1014.30
2018-08-18T01:04:38.655Z,1014.31
2018-08-18T01:05:38.681Z,1014.32
2018-08-18T01:06:38.710Z,1014.30
2018-08-18T01:07:38.722Z,1014.33
2018-08-18T01:08:38.747Z,1014.36
2018-08-18T01:09:38.774Z,1014.35
2018-08-18T01:10:38.799Z,1014.37
2018-08-18T01:11:38.899Z,1014.38
2018-08-18T01:12:38.996Z,1014.40
2018-08-18T01:13:38.874Z,1014.41
2018-08-18T01:14:38.910Z,1014.47
2018-08-18T01:15:38.947Z,1014.41
2018-08-18T01:16:38.931Z,1014.43
2018-08-18T01:17:38.955Z,1014.42
2018-08-18T01:18:38.981Z,1014.45
2018-08-18T01:19:39.007Z,1014.50
2018-08-18T01:20:39.033Z,1014.56
2018-08-18T01:21:39.048Z,1014.54
2018-08-18T01:22:39.072Z,1014.59
2018-08-18T01:23:39.098Z,1014.59
2018-08-18T01:24:39.125Z,1014.58
2018-08-18T01:25:39.150Z,1014.59
2018-08-18T01:26:39.166Z,1014.62
2018-08-18T01:27:39.190Z,1014.61
2018-08-18T01:28:39.216Z,1014.59
2018-08-18T01:29:39.245Z,1014.65
2018-08-18T01:30:39.255Z,1014.66
2018-08-18T01:31:39.281Z,1014.69
2018-08-18T01:32:39.307Z,1014.70
2018-08-18T01:33:39.333Z,1014.72
2018-08-18T01:34:39.359Z,1014.71
2018-08-18T01:35:39.372Z,1014.73
2018-08-18T01:36:39.400Z,1014.72
2018-08-18T01:37:39.423Z,1014.73
2018-08-18T01:38:39.450Z,1014.77
2018-08-18T01:39:39.463Z,1014.69
2018-08-18T01:40:39.491Z,1014.73
2018-08-18T01:41:39.516Z,1014.70
2018-08-18T01:42:39.542Z,1014.70
2018-08-18T01:43:39.569Z,1014.67
2018-08-18T01:44:39.582Z,1014.67
2018-08-18T01:45:39.608Z,1014.63
2018-08-18T01:46:39.631Z,1014.62
2018-08-18T01:47:39.659Z,1014.61
2018-08-18T01:48:39.686Z,1014.58
2018-08-18T01:49:39.707Z,1014.54
2018-08-18T01:50:39.725Z,1014.52
2018-08-18T01:51:39.750Z,1014.54
2018-08-18T01:52:39.777Z,1014.58
2018-08-18T01:53:39.803Z,1014.57
2018-08-18T01:54:39.815Z,1014.60
2018-08-18T01:55:39.840Z,1014.59
2018-08-18T01:56:39.879Z,1014.64
2018-08-18T01:57:39.895Z,1014.65
2018-08-18T01:58:39.906Z,1014.65
2018-08-18T01:59:39.933Z,1014.65
2018-08-18T02:00:39.959Z,1014.63
2018-08-18T02:01:39.984Z,1014.65
2018-08-18T02:02:40.011Z,1014.65
2018-08-18T02:03:40.037Z,1014.62
2018-08-18T02:04:40.051Z,1014.64
2018-08-18T02:05:40.078Z,1014.63
2018-08-18T02:06:40.101Z,1014.66
2018-08-18T02:07:40.127Z,1014.62
2018-08-18T02:08:40.141Z,1014.67
2018-08-18T02:09:40.168Z,1014.66
2018-08-18T02:10:40.193Z,1014.66
2018-08-18T02:11:40.219Z,1014.71
2018-08-18T02:12:40.233Z,1014.66
2018-08-18T02:13:40.258Z,1014.75
2018-08-18T02:14:40.285Z,1014.69
2018-08-18T02:15:40.310Z,1014.75
2018-08-18T02:16:40.336Z,1014.74
2018-08-18T02:17:40.354Z,1014.74
2018-08-18T02:18:40.377Z,1014.71
2018-08-18T02:19:40.408Z,1014.74
2018-08-18T02:20:40.428Z,1014.78
2018-08-18T02:21:40.454Z,1014.79
2018-08-18T02:22:40.467Z,1014.82
2018-08-18T02:23:40.492Z,1014.86
2018-08-18T02:24:40.518Z,1014.90
2018-08-18T02:25:40.562Z,1014.83
2018-08-18T02:26:40.558Z,1014.89
2018-08-18T02:27:40.585Z,1014.90
2018-08-18T02:28:40.612Z,1014.87
2018-08-18T02:29:40.637Z,1014.84
2018-08-18T02:30:40.663Z,1014.84
2018-08-18T02:31:40.676Z,1014.85
2018-08-18T02:32:40.714Z,1014.82
2018-08-18T02:33:40.728Z,1014.81
2018-08-18T02:34:40.753Z,1014.77
2018-08-18T02:35:40.768Z,1014.79
2018-08-18T02:36:40.794Z,1014.79
2018-08-18T02:37:40.821Z,1014.79
2018-08-18T02:38:40.845Z,1014.72
2018-08-18T02:39:40.861Z,1014.74
2018-08-18T02:40:40.885Z,1014.70
2018-08-18T02:41:40.909Z,1014.69
2018-08-18T02:42:40.942Z,1014.71
2018-08-18T02:43:40.956Z,1014.74
2018-08-18T02:44:40.976Z,1014.73
2018-08-18T02:45:41.002Z,1014.75
2018-08-18T02:46:41.033Z,1014.75
2018-08-18T02:47:41.041Z,1014.80
2018-08-18T02:48:41.066Z,1014.79
2018-08-18T02:49:41.094Z,1014.80
2018-08-18T02:50:41.120Z,1014.78
2018-08-18T02:51:41.133Z,1014.82
2018-08-18T02:52:41.159Z,1014.75
2018-08-18T02:53:41.185Z,1014.77
2018-08-18T02:54:41.211Z,1014.78
2018-08-18T02:55:41.225Z,1014.83
2018-08-18T02:56:41.250Z,1014.87
2018-08-18T02:57:41.278Z,1014.84
2018-08-18T02:58:41.301Z,1014.81
2018-08-18T02:59:41.320Z,1014.83
2018-08-18T03:00:41.341Z,1014.81
2018-08-18T03:01:41.367Z,1014.75
2018-08-18T03:02:41.380Z,1014.77
2018-08-18T03:03:41.406Z,1014.76
2018-08-18T03:04:41.433Z,1014.74
2018-08-18T03:05:41.459Z,1014.79
2018-08-18T03:06:41.484Z,1014.81
2018-08-18T03:07:41.508Z,1014.82
2018-08-18T03:08:41.524Z,1014.86
2018-08-18T03:09:41.554Z,1014.85
2018-08-18T03:10:41.564Z,1014.91
2018-08-18T03:11:41.592Z,1014.90
2018-08-18T03:12:41.615Z,1014.92
2018-08-18T03:13:41.641Z,1014.96
2018-08-18T03:14:41.655Z,1014.95
2018-08-18T03:15:41.682Z,1015.00
2018-08-18T03:16:41.707Z,1015.01
2018-08-18T03:17:41.720Z,1015.05
2018-08-18T03:18:41.746Z,1015.07
2018-08-18T03:19:41.784Z,1015.10
2018-08-18T03:20:41.811Z,1015.12
2018-08-18T03:21:41.817Z,1015.14
2018-08-18T03:22:41.842Z,1015.12
2018-08-18T03:23:41.863Z,1015.09
2018-08-18T03:24:41.889Z,1015.07
2018-08-18T03:25:41.902Z,1015.05
2018-08-18T03:26:41.928Z,1015.07
2018-08-18T03:27:41.968Z,1015.01
2018-08-18T03:28:41.967Z,1015.02
2018-08-18T03:29:41.995Z,1015.03
2018-08-18T03:30:42.020Z,1015.03
2018-08-18T03:31:42.065Z,1015.05
2018-08-18T03:32:42.059Z,1015.02
2018-08-18T03:33:42.086Z,1015.06
2018-08-18T03:34:42.110Z,1015.04
2018-08-18T03:35:42.126Z,1015.05
2018-08-18T03:36:42.151Z,1015.04
2018-08-18T03:37:42.177Z,1015.07
2018-08-18T03:38:42.203Z,1015.06
2018-08-18T03:39:42.216Z,1015.05
2018-08-18T03:40:42.241Z,1015.00
2018-08-18T03:41:42.267Z,1014.95
2018-08-18T03:42:42.294Z,1014.99
2018-08-18T03:43:42.308Z,1015.00
2018-08-18T03:44:42.333Z,1015.04
2018-08-18T03:45:42.359Z,1015.10
2018-08-18T03:46:42.372Z,1015.11
2018-08-18T03:47:42.398Z,1015.09
2018-08-18T03:48:42.437Z,1015.11
2018-08-18T03:49:42.463Z,1015.04
2018-08-18T03:50:42.465Z,1015.04
2018-08-18T03:51:42.493Z,1015.04
2018-08-18T03:52:42.517Z,1015.10
2018-08-18T03:53:42.541Z,1015.09
2018-08-18T03:54:42.556Z,1015.08
2018-08-18T03:55:42.581Z,1015.04
2018-08-18T03:56:42.606Z,1015.03
2018-08-18T03:57:42.622Z,1015.01
2018-08-18T03:58:42.647Z,1014.95
2018-08-18T03:59:42.673Z,1014.97
2018-08-18T04:00:42.699Z,1014.97
2018-08-18T04:01:42.760Z,1014.95
2018-08-18T04:02:42.739Z,1014.95
2018-08-18T04:03:42.778Z,1014.93
2018-08-18T04:04:42.789Z,1014.93
2018-08-18T04:05:42.802Z,1014.92
2018-08-18T04:06:42.829Z,1014.89
2018-08-18T04:07:42.856Z,1014.92
2018-08-18T04:08:42.868Z,1014.90
2018-08-18T04:09:42.895Z,1014.96
2018-08-18T04:10:42.935Z,1014.97
2018-08-18T04:11:42.945Z,1014.94
2018-08-18T04:12:42.962Z,1014.94
2018-08-18T04:13:42.987Z,1014.88
2018-08-18T04:14:43.012Z,1014.85
2018-08-18T04:15:43.025Z,1014.85
2018-08-18T04:16:43.064Z,1014.86
2018-08-18T04:17:43.076Z,1014.86
2018-08-18T04:18:43.103Z,1014.85
2018-08-18T04:19:43.118Z,1014.84
2018-08-18T04:20:43.142Z,1014.86
2018-08-18T04:21:43.168Z,1014.85
2018-08-18T04:22:43.181Z,1014.83
2018-08-18T04:23:43.220Z,1014.81
2018-08-18T04:24:43.233Z,1014.78
2018-08-18T04:25:43.260Z,1014.78
2018-08-18T04:26:43.273Z,1014.79
2018-08-18T04:27:43.304Z,1014.80
2018-08-18T04:28:43.325Z,1014.86
2018-08-18T04:29:43.351Z,1014.90
2018-08-18T04:30:43.366Z,1014.93
2018-08-18T04:31:43.392Z,1015.00
2018-08-18T04:32:43.420Z,1014.99
2018-08-18T04:33:43.431Z,1015.01
2018-08-18T04:34:43.457Z,1015.00
2018-08-18T04:35:43.482Z,1014.97
2018-08-18T04:36:43.509Z,1015.01
2018-08-18T04:37:43.522Z,1014.99
2018-08-18T04:38:43.547Z,1014.97
2018-08-18T04:39:43.573Z,1014.95
2018-08-18T04:40:43.587Z,1014.98
2018-08-18T04:41:43.613Z,1014.98
2018-08-18T04:42:43.642Z,1015.02
2018-08-18T04:43:43.711Z,1014.98
2018-08-18T04:44:43.678Z,1014.98
2018-08-18T04:45:43.703Z,1015.02
2018-08-18T04:46:43.742Z,1014.96
2018-08-18T04:47:43.755Z,1014.95
2018-08-18T04:48:43.769Z,1014.98
2018-08-18T04:49:43.807Z,1014.97
2018-08-18T04:50:43.822Z,1014.92
2018-08-18T04:51:43.837Z,1014.92
2018-08-18T04:52:43.860Z,1014.89
2018-08-18T04:53:43.887Z,1014.93
2018-08-18T04:54:43.912Z,1014.97
2018-08-18T04:55:43.927Z,1014.96
2018-08-18T04:56:43.968Z,1014.96
2018-08-18T04:57:43.980Z,1014.94
2018-08-18T04:58:44.005Z,1014.91
2018-08-18T04:59:44.035Z,1014.92
2018-08-18T05:00:44.043Z,1014.92
2018-08-18T05:01:44.069Z,1014.92
2018-08-18T05:02:44.095Z,1014.92
2018-08-18T05:03:44.110Z,1014.92
2018-08-18T05:04:44.136Z,1014.91
2018-08-18T05:05:44.161Z,1014.89
2018-08-18T05:06:44.189Z,1014.92
2018-08-18T05:07:44.208Z,1014.90
2018-08-18T05:08:44.248Z,1014.91
2018-08-18T05:09:44.253Z,1014.92
2018-08-18T05:10:44.277Z,1014.93
2018-08-18T05:11:44.354Z,1014.93
2018-08-18T05:12:44.319Z,1014.98
2018-08-18T05:13:44.344Z,1015.02
2018-08-18T05:14:44.369Z,1015.07
2018-08-18T05:15:44.383Z,1015.06
2018-08-18T05:16:44.409Z,1015.08
2018-08-18T05:17:44.437Z,1015.08
2018-08-18T05:18:44.472Z,1015.05
2018-08-18T05:19:44.479Z,1014.98
2018-08-18T05:20:44.504Z,1014.97
2018-08-18T05:21:44.527Z,1014.94
2018-08-18T05:22:44.554Z,1014.98
2018-08-18T05:23:44.566Z,1015.00
2018-08-18T05:24:44.591Z,1015.02
2018-08-18T05:25:44.617Z,1015.03
2018-08-18T05:26:44.643Z,1015.05
2018-08-18T05:27:44.675Z,1015.08
2018-08-18T05:28:44.685Z,1015.10
2018-08-18T05:29:44.710Z,1015.07
2018-08-18T05:30:44.736Z,1015.10
2018-08-18T05:31:44.749Z,1015.09
2018-08-18T05:32:44.777Z,1015.11
2018-08-18T05:33:44.800Z,1015.00
2018-08-18T05:34:44.826Z,1015.05
2018-08-18T05:35:44.841Z,1015.03
2018-08-18T05:36:44.869Z,1014.99
2018-08-18T05:37:44.892Z,1014.96
2018-08-18T05:38:44.918Z,1015.04
2018-08-18T05:39:44.931Z,1015.08
2018-08-18T05:40:44.956Z,1015.04
2018-08-18T05:41:44.996Z,1015.10
2018-08-18T05:42:45.014Z,1015.12
2018-08-18T05:43:45.023Z,1015.09
2018-08-18T05:44:45.049Z,1015.13
2018-08-18T05:45:45.075Z,1015.10
2018-08-18T05:46:45.101Z,1015.07
2018-08-18T05:47:45.113Z,1015.08
2018-08-18T05:48:45.152Z,1015.10
2018-08-18T05:49:45.178Z,1015.16
2018-08-18T05:50:45.191Z,1015.09
2018-08-18T05:51:45.204Z,1015.14
2018-08-18T05:52:45.234Z,1015.11
2018-08-18T05:53:45.257Z,1015.06
2018-08-18T05:54:45.283Z,1015.09
2018-08-18T05:55:45.300Z,1015.07
2018-08-18T05:56:45.321Z,1015.10
2018-08-18T05:57:45.348Z,1015.11
2018-08-18T05:58:45.387Z,1015.13
2018-08-18T05:59:45.431Z,1015.11
2018-08-18T06:00:45.413Z,1015.10
2018-08-18T06:01:45.444Z,1015.13
2018-08-18T06:02:45.466Z,1015.14
2018-08-18T06:03:45.478Z,1015.14
2018-08-18T06:04:45.507Z,1015.14
2018-08-18T06:05:45.706Z,1015.16
2018-08-18T06:06:45.556Z,1015.16
2018-08-18T06:07:45.571Z,1015.15
2018-08-18T06:08:45.599Z,1015.10
2018-08-18T06:09:45.623Z,1015.08
2018-08-18T06:10:45.684Z,1015.06
2018-08-18T06:11:45.675Z,1015.09
2018-08-18T06:12:45.688Z,1015.10
2018-08-18T06:13:45.714Z,1015.09
2018-08-18T06:14:45.738Z,1015.05
2018-08-18T06:15:45.766Z,1015.07
2018-08-18T06:16:45.780Z,1015.05
2018-08-18T06:17:45.806Z,1015.13
2018-08-18T06:18:45.833Z,1015.13
2018-08-18T06:19:45.858Z,1015.18
2018-08-18T06:20:45.882Z,1015.18
2018-08-18T06:21:45.908Z,1015.18
2018-08-18T06:22:45.922Z,1015.15
2018-08-18T06:23:45.947Z,1015.19
2018-08-18T06:24:45.974Z,1015.25
2018-08-18T06:25:45.988Z,1015.20
2018-08-18T06:26:46.014Z,1015.24
2018-08-18T06:27:46.039Z,1015.28
2018-08-18T06:28:46.068Z,1015.31
2018-08-18T06:29:46.091Z,1015.29
2018-08-18T06:30:46.104Z,1015.35
2018-08-18T06:31:46.130Z,1015.38
2018-08-18T06:32:46.156Z,1015.40
2018-08-18T06:33:46.183Z,1015.35
2018-08-18T06:34:46.301Z,1015.37
2018-08-18T06:35:46.223Z,1015.38
2018-08-18T06:36:46.249Z,1015.39
2018-08-18T06:37:46.277Z,1015.43
2018-08-18T06:38:46.301Z,1015.41
2018-08-18T06:39:46.326Z,1015.50
2018-08-18T06:40:46.352Z,1015.47
2018-08-18T06:41:46.584Z,1015.56
2018-08-18T06:42:46.395Z,1015.57
2018-08-18T06:43:46.418Z,1015.52
2018-08-18T06:44:46.444Z,1015.57
2018-08-18T06:45:46.469Z,1015.60
2018-08-18T06:46:46.509Z,1015.57
2018-08-18T06:47:46.521Z,1015.60
2018-08-18T06:48:46.547Z,1015.58
2018-08-18T06:49:46.586Z,1015.59
2018-08-18T06:50:46.598Z,1015.57
2018-08-18T06:51:46.624Z,1015.62
2018-08-18T06:52:46.650Z,1015.63
2018-08-18T06:53:46.676Z,1015.64
2018-08-18T06:54:46.713Z,1015.66
2018-08-18T06:55:46.730Z,1015.64
2018-08-18T06:56:46.776Z,1015.67
2018-08-18T06:57:46.786Z,1015.71
2018-08-18T06:58:46.806Z,1015.77
2018-08-18T06:59:46.832Z,1015.77
2018-08-18T07:00:46.860Z,1015.81
2018-08-18T07:01:46.898Z,1015.78
2018-08-18T07:02:46.910Z,1015.70
2018-08-18T07:03:46.943Z,1015.73
2018-08-18T07:04:46.964Z,1015.75
2018-08-18T07:05:47.043Z,1015.71
2018-08-18T07:06:47.015Z,1015.73
2018-08-18T07:07:47.043Z,1015.74
2018-08-18T07:08:47.080Z,1015.72
2018-08-18T07:09:47.105Z,1015.76
2018-08-18T07:10:47.132Z,1015.76
2018-08-18T07:11:47.158Z,1015.77
2018-08-18T07:12:47.184Z,1015.78
2018-08-18T07:13:47.210Z,1015.80
2018-08-18T07:14:47.235Z,1015.80
2018-08-18T07:15:47.261Z,1015.81
2018-08-18T07:16:47.299Z,1015.82
2018-08-18T07:17:47.325Z,1015.83
2018-08-18T07:18:47.352Z,1015.86
2018-08-18T07:19:47.377Z,1015.88
2018-08-18T07:20:47.402Z,1015.93
2018-08-18T07:21:47.442Z,1015.95
2018-08-18T07:22:47.468Z,1015.98
2018-08-18T07:23:47.505Z,1016.04
2018-08-18T07:24:47.520Z,1016.06
2018-08-18T07:25:47.550Z,1016.13
2018-08-18T07:26:47.584Z,1016.05
2018-08-18T07:27:47.610Z,1016.07
2018-08-18T07:28:47.691Z,1016.12
2018-08-18T07:29:47.675Z,1016.07
2018-08-18T07:30:47.702Z,1016.10
2018-08-18T07:31:47.727Z,1016.08
2018-08-18T07:32:47.753Z,1016.12
2018-08-18T07:33:47.778Z,1016.11
2018-08-18T07:34:47.816Z,1016.11
2018-08-18T07:35:47.842Z,1016.13
2018-08-18T07:36:47.868Z,1016.20
2018-08-18T07:37:47.906Z,1016.17
2018-08-18T07:38:47.933Z,1016.16
2018-08-18T07:39:47.960Z,1016.13
2018-08-18T07:40:47.997Z,1016.17
2018-08-18T07:41:48.030Z,1016.14
2018-08-18T07:42:48.062Z,1016.14
2018-08-18T07:43:48.075Z,1016.20
2018-08-18T07:44:48.113Z,1016.19
2018-08-18T07:45:48.143Z,1016.20
2018-08-18T07:46:48.168Z,1016.22
2018-08-18T07:47:48.206Z,1016.21
2018-08-18T07:48:48.230Z,1016.20
2018-08-18T07:49:48.255Z,1016.23
2018-08-18T07:50:48.295Z,1016.21
2018-08-18T07:51:48.321Z,1016.21
2018-08-18T07:52:48.348Z,1016.22
2018-08-18T07:53:48.373Z,1016.32
2018-08-18T07:54:48.411Z,1016.27
2018-08-18T07:55:48.436Z,1016.31
2018-08-18T07:56:48.462Z,1016.28
2018-08-18T07:57:48.488Z,1016.28
2018-08-18T07:58:48.527Z,1016.23
2018-08-18T07:59:48.646Z,1016.21
2018-08-18T08:00:48.579Z,1016.22
2018-08-18T08:01:48.605Z,1016.22
2018-08-18T08:02:48.643Z,1016.25
2018-08-18T08:03:48.670Z,1016.24
2018-08-18T08:04:48.695Z,1016.32
2018-08-18T08:05:48.737Z,1016.30
2018-08-18T08:06:48.760Z,1016.36
2018-08-18T08:07:48.789Z,1016.36
2018-08-18T08:08:48.812Z,1016.44
2018-08-18T08:09:48.850Z,1016.40
2018-08-18T08:10:48.876Z,1016.37
2018-08-18T08:11:48.902Z,1016.44
2018-08-18T08:12:48.950Z,1016.45
2018-08-18T08:13:48.969Z,1016.51
2018-08-18T08:14:48.992Z,1016.52
2018-08-18T08:15:49.020Z,1016.56
2018-08-18T08:16:49.045Z,1016.57
2018-08-18T08:17:49.083Z,1016.54
2018-08-18T08:18:49.109Z,1016.55
2018-08-18T08:19:49.134Z,1016.55
2018-08-18T08:20:49.173Z,1016.52
2018-08-18T08:21:49.200Z,1016.56
2018-08-18T08:22:49.262Z,1016.58
2018-08-18T08:23:49.251Z,1016.54
2018-08-18T08:24:49.276Z,1016.55
2018-08-18T08:25:49.315Z,1016.49
2018-08-18T08:26:49.341Z,1016.46
2018-08-18T08:27:49.367Z,1016.49
2018-08-18T08:28:49.393Z,1016.49
2018-08-18T08:29:49.432Z,1016.54
2018-08-18T08:30:49.458Z,1016.55
2018-08-18T08:31:49.483Z,1016.55
2018-08-18T08:32:49.511Z,1016.54
2018-08-18T08:33:49.536Z,1016.55
2018-08-18T08:34:49.574Z,1016.54
2018-08-18T08:35:49.599Z,1016.53
2018-08-18T08:36:49.639Z,1016.48
2018-08-18T08:37:49.652Z,1016.43
2018-08-18T08:38:49.679Z,1016.37
2018-08-18T08:39:49.716Z,1016.41
2018-08-18T08:40:49.747Z,1016.42
2018-08-18T08:41:49.768Z,1016.45
2018-08-18T08:42:49.801Z,1016.41
2018-08-18T08:43:49.820Z,1016.46
2018-08-18T08:44:49.858Z,1016.52
2018-08-18T08:45:49.883Z,1016.61
2018-08-18T08:46:49.910Z,1016.63
2018-08-18T08:47:49.952Z,1016.61
2018-08-18T08:48:49.961Z,1016.67
2018-08-18T08:49:49.988Z,1016.69
2018-08-18T08:50:50.016Z,1016.67
2018-08-18T08:51:50.057Z,1016.69
2018-08-18T08:52:50.079Z,1016.67
2018-08-18T08:53:50.107Z,1016.63
2018-08-18T08:54:50.134Z,1016.57
2018-08-18T08:55:50.158Z,1016.59
2018-08-18T08:56:50.184Z,1016.58
2018-08-18T08:57:50.220Z,1016.61
2018-08-18T08:58:50.271Z,1016.64
2018-08-18T08:59:50.272Z,1016.68
2018-08-18T09:00:50.298Z,1016.63
2018-08-18T09:01:50.324Z,1016.58
2018-08-18T09:02:50.353Z,1016.57
2018-08-18T09:03:50.390Z,1016.50
2018-08-18T09:04:50.415Z,1016.44
2018-08-18T09:05:50.445Z,1016.43
2018-08-18T09:06:50.468Z,1016.45
2018-08-18T09:07:50.546Z,1016.37
2018-08-18T09:08:50.533Z,1016.29
2018-08-18T09:09:50.558Z,1016.30
2018-08-18T09:10:50.596Z,1016.26
2018-08-18T09:11:50.609Z,1016.30
2018-08-18T09:12:50.648Z,1016.27
2018-08-18T09:13:50.675Z,1016.38
2018-08-18T09:14:50.702Z,1016.43
2018-08-18T09:15:50.726Z,1016.46
2018-08-18T09:16:50.763Z,1016.48
2018-08-18T09:17:50.790Z,1016.45
2018-08-18T09:18:50.817Z,1016.44
2018-08-18T09:19:50.856Z,1016.45
2018-08-18T09:20:50.883Z,1016.40
2018-08-18T09:21:50.909Z,1016.41
2018-08-18T09:22:50.933Z,1016.39
2018-08-18T09:23:50.960Z,1016.38
2018-08-18T09:24:50.997Z,1016.40
2018-08-18T09:25:51.025Z,1016.37
2018-08-18T09:26:51.049Z,1016.36
2018-08-18T09:27:51.074Z,1016.40
2018-08-18T09:28:51.114Z,1016.49
2018-08-18T09:29:51.141Z,1016.52
2018-08-18T09:30:51.166Z,1016.61
2018-08-18T09:31:51.192Z,1016.61
2018-08-18T09:32:51.233Z,1016.60
2018-08-18T09:33:51.256Z,1016.62
2018-08-18T09:34:51.282Z,1016.59
2018-08-18T09:35:51.307Z,1016.62
2018-08-18T09:36:51.337Z,1016.60
2018-08-18T09:37:51.373Z,1016.60
2018-08-18T09:38:51.403Z,1016.59
2018-08-18T09:39:51.425Z,1016.62
2018-08-18T09:40:51.451Z,1016.61
2018-08-18T09:41:51.488Z,1016.65
2018-08-18T09:42:51.515Z,1016.60
2018-08-18T09:43:51.539Z,1016.59
2018-08-18T09:44:51.567Z,1016.62
2018-08-18T09:45:51.604Z,1016.58
2018-08-18T09:46:51.636Z,1016.59
2018-08-18T09:47:51.668Z,1016.54
2018-08-18T09:48:51.696Z,1016.52
2018-08-18T09:49:51.721Z,1016.51
2018-08-18T09:50:51.747Z,1016.52
2018-08-18T09:51:51.775Z,1016.52
2018-08-18T09:52:51.812Z,1016.54
2018-08-18T09:53:51.838Z,1016.57
2018-08-18T09:54:51.865Z,1016.54
2018-08-18T09:55:51.901Z,1016.57
2018-08-18T09:56:51.927Z,1016.60
2018-08-18T09:57:51.968Z,1016.59
2018-08-18T09:58:51.994Z,1016.59
2018-08-18T09:59:52.018Z,1016.58
2018-08-18T10:00:52.056Z,1016.60
2018-08-18T10:01:52.095Z,1016.61
2018-08-18T10:02:52.109Z,1016.65
2018-08-18T10:03:52.148Z,1016.66
2018-08-18T10:04:52.174Z,1016.70
2018-08-18T10:05:52.199Z,1016.67
2018-08-18T10:06:52.238Z,1016.69
2018-08-18T10:07:52.263Z,1016.67
2018-08-18T10:08:52.302Z,1016.71
2018-08-18T10:09:52.327Z,1016.66
2018-08-18T10:10:52.354Z,1016.67
2018-08-18T10:11:52.391Z,1016.61
2018-08-18T10:12:52.417Z,1016.66
2018-08-18T10:13:52.445Z,1016.65
2018-08-18T10:14:52.485Z,1016.68
2018-08-18T10:15:52.509Z,1016.75
2018-08-18T10:16:52.547Z,1016.71
2018-08-18T10:17:52.572Z,1016.75
2018-08-18T10:18:52.598Z,1016.74
2018-08-18T10:19:52.638Z,1016.74
2018-08-18T10:20:52.663Z,1016.77
2018-08-18T10:21:52.701Z,1016.75
2018-08-18T10:22:52.729Z,1016.74
2018-08-18T10:23:52.753Z,1016.73
2018-08-18T10:24:52.792Z,1016.72
2018-08-18T10:25:52.819Z,1016.68
2018-08-18T10:26:52.845Z,1016.72
2018-08-18T10:27:52.882Z,1016.68
2018-08-18T10:28:52.909Z,1016.69
2018-08-18T10:29:52.948Z,1016.62
2018-08-18T10:30:52.973Z,1016.65
2018-08-18T10:31:52.999Z,1016.67
2018-08-18T10:32:53.036Z,1016.64
2018-08-18T10:33:53.064Z,1016.65
2018-08-18T10:34:53.101Z,1016.65
2018-08-18T10:35:53.128Z,1016.67
2018-08-18T10:36:53.167Z,1016.72
2018-08-18T10:37:53.191Z,1016.72
2018-08-18T10:38:53.218Z,1016.68
2018-08-18T10:39:53.256Z,1016.68
2018-08-18T10:40:53.283Z,1016.70
2018-08-18T10:41:53.364Z,1016.71
2018-08-18T10:42:53.359Z,1016.72
2018-08-18T10:43:53.375Z,1016.66
2018-08-18T10:44:53.412Z,1016.62
2018-08-18T10:45:53.437Z,1016.55
2018-08-18T10:46:53.475Z,1016.57
2018-08-18T10:47:53.502Z,1016.55
2018-08-18T10:48:53.542Z,1016.49
2018-08-18T10:49:53.567Z,1016.56
2018-08-18T10:50:53.617Z,1016.48
2018-08-18T10:51:53.631Z,1016.46
2018-08-18T10:52:53.670Z,1016.43
2018-08-18T10:53:53.696Z,1016.43
2018-08-18T10:54:53.732Z,1016.31
2018-08-18T10:55:53.758Z,1016.40
2018-08-18T10:56:53.798Z,1016.44
2018-08-18T10:57:53.855Z,1016.43
2018-08-18T10:58:53.863Z,1016.45
2018-08-18T10:59:53.900Z,1016.40
2018-08-18T11:00:53.927Z,1016.40
2018-08-18T11:01:53.966Z,1016.42
2018-08-18T11:02:54.004Z,1016.36
2018-08-18T11:03:54.079Z,1016.40
2018-08-18T11:04:54.067Z,1016.40
2018-08-18T11:05:54.107Z,1016.39
2018-08-18T11:06:54.157Z,1016.42
2018-08-18T11:07:54.184Z,1016.32
2018-08-18T11:08:54.221Z,1016.35
2018-08-18T11:09:54.260Z,1016.36
2018-08-18T11:10:54.286Z,1016.33
2018-08-18T11:11:54.451Z,1016.29
2018-08-18T11:12:54.362Z,1016.22
2018-08-18T11:13:54.411Z,1016.29
2018-08-18T11:14:54.440Z,1016.33
2018-08-18T11:15:54.481Z,1016.29
2018-08-18T11:16:54.517Z,1016.26
2018-08-18T11:17:54.556Z,1016.24
2018-08-18T11:18:54.594Z,1016.25
2018-08-18T11:19:54.633Z,1016.30
2018-08-18T11:20:54.672Z,1016.29
2018-08-18T11:21:54.706Z,1016.24
2018-08-18T11:22:54.761Z,1016.31
2018-08-18T11:23:54.776Z,1016.27
2018-08-18T11:24:54.811Z,1016.28
2018-08-18T11:25:54.840Z,1016.29
2018-08-18T11:26:54.876Z,1016.27
2018-08-18T11:27:54.915Z,1016.19
2018-08-18T11:28:55.034Z,1016.18
2018-08-18T11:29:54.992Z,1016.17
2018-08-18T11:30:55.018Z,1016.17
2018-08-18T11:31:55.057Z,1016.19
2018-08-18T11:32:55.094Z,1016.18
2018-08-18T11:33:55.134Z,1016.14
2018-08-18T11:34:55.172Z,1016.17
2018-08-18T11:35:55.200Z,1016.14
2018-08-18T11:36:55.237Z,1016.12
2018-08-18T11:37:55.277Z,1016.12
2018-08-18T11:38:55.314Z,1016.12
2018-08-18T11:39:55.353Z,1016.14
2018-08-18T11:40:55.392Z,1016.10
2018-08-18T11:41:55.429Z,1016.13
2018-08-18T11:42:55.468Z,1016.19
2018-08-18T11:43:55.510Z,1016.15
2018-08-18T11:44:55.544Z,1016.07
2018-08-18T11:45:55.582Z,1016.14
2018-08-18T11:46:55.620Z,1016.12
2018-08-18T11:47:55.648Z,1016.12
2018-08-18T11:48:55.685Z,1016.12
2018-08-18T11:49:55.725Z,1016.11
2018-08-18T11:50:55.763Z,1016.11
2018-08-18T11:51:55.801Z,1016.11
2018-08-18T11:52:55.841Z,1016.02
2018-08-18T11:53:55.878Z,1016.04
2018-08-18T11:54:55.916Z,1016.01
2018-08-18T11:55:55.954Z,1015.98
2018-08-18T11:56:55.993Z,1015.95
2018-08-18T11:57:56.032Z,1015.94
2018-08-18T11:58:56.075Z,1015.83
2018-08-18T11:59:56.109Z,1015.86
2018-08-18T12:00:56.177Z,1015.88
2018-08-18T12:01:56.234Z,1015.89
2018-08-18T12:02:56.224Z,1015.86
2018-08-18T12:03:56.263Z,1015.82
2018-08-18T12:04:56.301Z,1015.84
2018-08-18T12:05:56.340Z,1015.84